Time;durP1;ratioP1;P1;durP2;ratioP2;P2;SDS_P1;SDS_P2;PMS_P1;PMS_P2;Temp;Humidity;BMP_temperature;BMP_pressure;BME280_temperature;BME280_humidity;BME280_pressure;Samples;Min_cycle;Max_cycle;Signal;HPM_P1;HPM_P2
2023/01/03 00:01:27;;;;;;;;;;;;;;;26.13;50.52;97871.08;613881;231;65033;-72
2023/01/03 00:03:55;;;;;;;;;;;;;;;26.13;50.96;97872.98;613822;231;68914;-72
2023/01/03 00:06:23;;;;;;;;;;;;;;;26.12;51.75;97872.19;613828;231;68696;-68
2023/01/03 00:08:51;;;;;;;;;;;;;;;26.12;49.83;97872.19;613858;231;65253;-68
2023/01/03 00:12:22;;;;;;;;;;;;;;;26.11;50.98;97877.88;613814;231;68448;-69
2023/01/03 00:13:52;;;;;;;;;;;;;;;26.11;47.84;97875.97;612602;229;69357;-67
2023/01/03 00:16:21;;;;;;;;;;;;;;;26.12;49.24;97876.77;613845;231;65015;-68
2023/01/03 00:18:48;;;;;;;;;;;;;;;26.11;50.16;97878.67;613831;231;69038;-68
2023/01/03 00:21:16;;;;;;;;;;;;;;;26.10;50.99;97873.55;613840;231;66672;-68
2023/01/03 00:23:43;;;;;;;;;;;;;;;26.11;50.49;97872.48;613825;231;62787;-68
2023/01/03 00:26:11;;;;;;;;;;;;;;;26.09;50.42;97867.37;613761;231;66398;-67
2023/01/03 00:28:39;;;;;;;;;;;;;;;26.09;49.91;97870.06;615111;230;68702;-68
2023/01/03 00:31:08;;;;;;;;;;;;;;;26.07;50.30;97874.92;615054;230;64951;-68
2023/01/03 00:33:36;;;;;;;;;;;;;;;26.07;51.46;97872.22;615085;230;68773;-68
2023/01/03 00:36:05;;;;;;;;;;;;;;;26.07;51.01;97884.89;615048;230;68511;-67
2023/01/03 00:38:33;;;;;;;;;;;;;;;26.07;50.59;97876.81;615005;230;65072;-67
2023/01/03 00:41:05;;;;;;;;;;;;;;;26.06;49.81;97878.71;615091;230;69515;-68
2023/01/03 00:43:32;;;;;;;;;;;;;;;26.06;50.25;97876.02;614991;230;66317;-67
2023/01/03 00:46:00;;;;;;;;;;;;;;;26.07;50.25;97885.70;615060;230;62932;-67
2023/01/03 00:48:28;;;;;;;;;;;;;;;26.06;50.00;97883.30;615067;230;66627;-67
2023/01/03 00:50:56;;;;;;;;;;;;;;;26.06;50.75;97885.99;615032;230;68783;-67
2023/01/03 00:53:23;;;;;;;;;;;;;;;26.05;51.11;97887.86;615103;230;65088;-67
2023/01/03 00:55:51;;;;;;;;;;;;;;;26.04;50.64;97872.00;615059;230;69432;-67
2023/01/03 00:58:19;;;;;;;;;;;;;;;26.02;50.66;97869.58;615067;230;66371;-67
2023/01/03 01:00:46;;;;;;;;;;;;;;;26.02;51.65;97866.88;615067;230;63659;-67
2023/01/03 01:03:16;;;;;;;;;;;;;;;26.01;50.05;97864.48;615044;230;68723;-67
2023/01/03 01:05:43;;;;;;;;;;;;;;;26.01;51.12;97869.88;614988;230;65854;-68
2023/01/03 01:08:10;;;;;;;;;;;;;;;26.00;50.83;97873.64;615091;230;65133;-67
2023/01/03 01:10:39;;;;;;;;;;;;;;;26.00;52.08;97865.55;615061;230;68857;-68
2023/01/03 01:13:06;;;;;;;;;;;;;;;26.00;50.79;97868.25;614952;230;68708;-68
2023/01/03 01:15:34;;;;;;;;;;;;;;;26.00;50.21;97862.86;615061;230;65050;-67
2023/01/03 01:18:01;;;;;;;;;;;;;;;26.00;49.19;97862.86;615004;230;66505;-67
2023/01/03 01:20:29;;;;;;;;;;;;;;;25.98;50.68;97857.77;615111;230;66633;-68
2023/01/03 01:22:56;;;;;;;;;;;;;;;25.97;49.80;97856.15;615061;230;64926;-68
2023/01/03 01:25:24;;;;;;;;;;;;;;;25.96;50.84;97853.75;615041;230;68502;-68
2023/01/03 01:27:51;;;;;;;;;;;;;;;25.96;50.98;97853.75;614990;230;68664;-68
2023/01/03 01:30:19;;;;;;;;;;;;;;;25.95;50.51;97852.96;615047;230;64869;-67
2023/01/03 01:32:46;;;;;;;;;;;;;;;25.94;50.37;97848.64;615045;230;68827;-68
2023/01/03 01:35:14;;;;;;;;;;;;;;;25.94;50.86;97856.72;615044;230;66450;-68
2023/01/03 01:37:41;;;;;;;;;;;;;;;25.94;51.81;97845.15;615044;230;65118;-68
2023/01/03 01:40:09;;;;;;;;;;;;;;;25.94;51.09;97845.15;615044;230;66502;-68
2023/01/03 01:45:22;;;;;;;;;;;;;;;25.90;50.59;97848.41;615014;230;62876;-67
2023/01/03 01:47:51;;;;;;;;;;;;;;;25.89;51.02;97844.13;615108;230;68755;-67
2023/01/03 01:50:20;;;;;;;;;;;;;;;25.90;51.03;97840.34;615057;230;68654;-68
2023/01/03 01:52:52;;;;;;;;;;;;;;;25.89;51.91;97837.91;615044;230;62489;-67
2023/01/03 01:55:21;;;;;;;;;;;;;;;25.88;51.76;97837.11;615003;230;66614;-67
2023/01/03 01:57:49;;;;;;;;;;;;;;;25.88;50.59;97833.62;614998;230;66252;-72
2023/01/03 02:00:17;;;;;;;;;;;;;;;25.87;50.39;97832.03;615076;230;62981;-71
2023/01/03 02:02:46;;;;;;;;;;;;;;;25.85;51.47;97826.11;615059;230;68838;-71
2023/01/03 02:05:15;;;;;;;;;;;;;;;25.85;50.96;97823.42;615020;230;68639;-72
2023/01/03 02:07:43;;;;;;;;;;;;;;;25.86;50.62;97831.23;615053;230;62912;-72
2023/01/03 02:10:11;;;;;;;;;;;;;;;25.84;51.70;97828.01;615018;230;66659;-72
2023/01/03 02:15:30;;;;;;;;;;;;;;;25.82;50.64;97832.84;615096;230;64947;-71
2023/01/03 02:17:59;;;;;;;;;;;;;;;25.82;51.46;97832.03;615028;230;68607;-71
2023/01/03 02:20:28;;;;;;;;;;;;;;;25.81;51.43;97831.23;614496;230;69199;-72
2023/01/03 02:23:00;;;;;;;;;;;;;;;25.80;51.58;97832.31;614911;230;64840;-72
2023/01/03 02:25:32;;;;;;;;;;;;;;;25.78;51.00;97839.89;615022;230;66428;-71
2023/01/03 02:28:17;;;;;;;;;;;;;;;25.79;50.05;97840.69;614012;230;68609;-72
2023/01/03 02:30:49;;;;;;;;;;;;;;;25.78;50.48;97839.89;613855;231;64965;-72
2023/01/03 02:33:24;;;;;;;;;;;;;;;25.78;51.51;97842.58;613786;231;69938;-72
2023/01/03 02:35:56;;;;;;;;;;;;;;;25.76;51.48;97836.66;613653;230;68592;-72
2023/01/03 02:38:28;;;;;;;;;;;;;;;25.75;51.48;97837.73;613760;230;62947;-72
2023/01/03 02:40:57;;;;;;;;;;;;;;;25.75;50.42;97837.73;613858;231;68186;-72
2023/01/03 02:43:26;;;;;;;;;;;;;;;25.74;49.74;97833.45;613663;230;68369;-72
2023/01/03 02:45:57;;;;;;;;;;;;;;;25.74;51.37;97838.83;613903;230;64995;-72
2023/01/03 02:48:26;;;;;;;;;;;;;;;25.74;49.82;97828.06;613882;231;66656;-72
2023/01/03 02:50:55;;;;;;;;;;;;;;;25.73;50.34;97834.54;613876;231;66383;-72
2023/01/03 02:53:27;;;;;;;;;;;;;;;25.72;50.31;97835.61;613800;231;63875;-72
2023/01/03 02:55:56;;;;;;;;;;;;;;;25.71;51.51;97823.24;613856;231;68461;-72
2023/01/03 02:58:25;;;;;;;;;;;;;;;25.69;51.08;97828.09;613918;231;66274;-72
2023/01/03 03:00:54;;;;;;;;;;;;;;;25.69;50.97;97833.48;613856;231;62877;-72
2023/01/03 03:03:23;;;;;;;;;;;;;;;25.68;50.87;97829.99;613834;231;68755;-72
2023/01/03 03:05:55;;;;;;;;;;;;;;;25.68;51.01;97832.69;613858;231;66616;-72
2023/01/03 03:08:23;;;;;;;;;;;;;;;25.67;50.73;97833.78;613680;230;62768;-73
2023/01/03 03:13:51;;;;;;;;;;;;;;;25.67;49.23;97827.57;613884;231;68594;-72
2023/01/03 03:24:48;;;;;;;;;;;;;;;25.63;51.51;97827.34;613837;231;66146;-71
2023/01/03 03:24:49;;;;;;;;;;;;;;;25.63;51.67;97829.23;613841;231;65344;-71
2023/01/03 03:30:05;;;;;;;;;;;;;;;25.61;50.67;97823.32;613859;231;66466;-73
2023/01/03 03:32:34;;;;;;;;;;;;;;;25.59;51.33;97823.62;613816;231;63221;-71
2023/01/03 03:35:03;;;;;;;;;;;;;;;25.58;51.58;97824.69;613846;231;68736;-72
2023/01/03 03:37:32;;;;;;;;;;;;;;;25.57;50.70;97820.40;613814;230;67039;-72
2023/01/03 03:45:36;;;;;;;;;;;;;;;25.55;51.93;97814.48;613837;231;66625;-68
2023/01/03 03:48:17;;;;;;;;;;;;;;;25.55;50.92;97808.30;613725;230;62760;-68
2023/01/03 03:50:46;;;;;;;;;;;;;;;25.54;51.57;97812.89;613798;231;66575;-68
2023/01/03 03:53:16;;;;;;;;;;;;;;;25.52;51.02;97815.05;613873;231;69442;-68
2023/01/03 03:55:45;;;;;;;;;;;;;;;25.53;51.49;97815.84;613840;231;62823;-68
2023/01/03 03:58:16;;;;;;;;;;;;;;;25.51;51.37;97821.53;613820;231;66237;-68
2023/01/03 04:00:45;;;;;;;;;;;;;;;25.50;52.31;97811.83;613815;231;66689;-68
2023/01/03 04:03:13;;;;;;;;;;;;;;;25.51;51.05;97815.31;613789;231;62991;-68
2023/01/03 04:05:42;;;;;;;;;;;;;;;25.50;49.76;97816.41;613894;231;68984;-68
2023/01/03 04:08:10;;;;;;;;;;;;;;;25.50;51.59;97811.03;613827;230;68529;-72
2023/01/03 04:10:37;;;;;;;;;;;;;;;25.48;51.80;97813.99;613837;231;65248;-72
2023/01/03 04:13:05;;;;;;;;;;;;;;;25.47;51.55;97815.88;613812;231;68596;-72
2023/01/03 04:15:32;;;;;;;;;;;;;;;25.46;49.99;97813.49;613808;231;68544;-72
2023/01/03 04:18:03;;;;;;;;;;;;;;;25.46;51.54;97813.49;613896;231;65087;-68
2023/01/03 04:20:30;;;;;;;;;;;;;;;25.45;51.72;97815.38;613860;231;66561;-68
2023/01/03 04:22:59;;;;;;;;;;;;;;;25.45;51.93;97815.38;613820;231;69001;-68
2023/01/03 04:25:26;;;;;;;;;;;;;;;25.45;50.12;97819.94;613817;231;65032;-68
2023/01/03 04:27:55;;;;;;;;;;;;;;;25.45;51.17;97820.77;613768;231;66221;-68
2023/01/03 04:30:22;;;;;;;;;;;;;;;25.44;50.82;97824.52;613829;231;68636;-68
2023/01/03 04:32:50;;;;;;;;;;;;;;;25.43;51.80;97820.23;613863;231;64948;-68
2023/01/03 04:35:17;;;;;;;;;;;;;;;25.41;50.97;97830.47;613835;231;68904;-68
2023/01/03 04:37:44;;;;;;;;;;;;;;;25.42;51.01;97821.30;613812;231;68525;-68
2023/01/03 04:40:12;;;;;;;;;;;;;;;25.43;51.07;97827.51;613806;231;63077;-68
2023/01/03 04:45:25;;;;;;;;;;;;;;;25.41;51.17;97822.39;613898;231;68452;-68
2023/01/03 04:47:53;;;;;;;;;;;;;;;25.39;50.36;97819.17;613837;231;62761;-68
2023/01/03 04:50:20;;;;;;;;;;;;;;;25.39;50.74;97829.94;613829;231;68947;-68
2023/01/03 04:52:48;;;;;;;;;;;;;;;25.37;51.53;97824.05;613756;231;69013;-68
2023/01/03 04:55:15;;;;;;;;;;;;;;;25.38;51.01;97832.92;613820;231;64917;-68
2023/01/03 04:57:43;;;;;;;;;;;;;;;25.35;51.38;97834.28;613876;231;68684;-68
2023/01/03 05:00:11;;;;;;;;;;;;;;;25.34;51.08;97829.97;613842;231;68578;-68
2023/01/03 05:02:38;;;;;;;;;;;;;;;25.34;51.75;97832.66;613820;231;64987;-68
2023/01/03 05:05:06;;;;;;;;;;;;;;;25.33;50.47;97828.37;613806;231;68615;-68
2023/01/03 05:07:34;;;;;;;;;;;;;;;25.32;51.50;97831.33;613805;231;68705;-68
2023/01/03 05:10:02;;;;;;;;;;;;;;;25.32;50.37;97837.53;613836;231;65678;-68
2023/01/03 05:12:29;;;;;;;;;;;;;;;25.31;50.64;97835.11;613854;231;66198;-68
2023/01/03 05:14:59;;;;;;;;;;;;;;;25.31;50.45;97843.98;613802;231;66536;-68
2023/01/03 05:17:26;;;;;;;;;;;;;;;25.30;50.35;97837.00;613812;231;62954;-68
2023/01/03 05:28:10;;;;;;;;;;;;;;;25.28;50.40;97839.16;614809;230;68827;-68
2023/01/03 05:30:38;;;;;;;;;;;;;;;25.28;51.71;97835.67;615099;230;68729;-68
2023/01/03 05:33:05;;;;;;;;;;;;;;;25.27;51.77;97840.26;615053;230;65030;-68
2023/01/03 05:35:33;;;;;;;;;;;;;;;25.27;51.86;97842.95;615032;230;68730;-68
2023/01/03 05:38:00;;;;;;;;;;;;;;;25.28;51.66;97846.44;615061;230;68664;-68
2023/01/03 05:40:28;;;;;;;;;;;;;;;25.28;52.65;97847.23;615038;230;65066;-68
2023/01/03 05:42:55;;;;;;;;;;;;;;;25.27;51.53;97848.33;615057;229;68741;-68
2023/01/03 05:45:26;;;;;;;;;;;;;;;25.27;51.77;97845.64;615052;230;66600;-68
2023/01/03 05:47:52;;;;;;;;;;;;;;;25.27;51.85;97845.64;614990;230;62837;-67
2023/01/03 05:50:19;;;;;;;;;;;;;;;25.29;52.87;97848.86;615059;230;68865;-67
2023/01/03 05:52:47;;;;;;;;;;;;;;;25.29;51.74;97854.24;615013;230;68802;-67
2023/01/03 05:55:15;;;;;;;;;;;;;;;25.29;52.12;97846.17;615045;230;62990;-67
2023/01/03 05:57:43;;;;;;;;;;;;;;;25.31;53.04;97849.36;615057;230;66653;-67
2023/01/03 06:00:11;;;;;;;;;;;;;;;25.31;51.85;97854.74;615047;230;66202;-67
2023/01/03 06:02:38;;;;;;;;;;;;;;;25.32;51.84;97856.38;615051;230;65033;-67
2023/01/03 06:05:06;;;;;;;;;;;;;;;25.34;52.52;97856.88;615020;230;66659;-67
2023/01/03 06:07:36;;;;;;;;;;;;;;;25.34;51.89;97859.56;615061;230;69087;-67
2023/01/03 06:10:04;;;;;;;;;;;;;;;25.36;54.31;97856.61;615025;230;62913;-68
2023/01/03 06:12:32;;;;;;;;;;;;;;;25.37;54.28;97866.27;615041;230;69482;-68
2023/01/03 06:14:59;;;;;;;;;;;;;;;25.37;54.09;97867.11;615012;230;68782;-68
2023/01/03 06:20:13;;;;;;;;;;;;;;;25.40;54.68;97871.92;614981;230;68719;-68
2023/01/03 06:22:40;;;;;;;;;;;;;;;25.41;54.32;97878.91;615105;230;66393;-68
2023/01/03 06:25:08;;;;;;;;;;;;;;;25.43;54.28;97870.56;615064;230;62742;-68
2023/01/03 06:27:35;;;;;;;;;;;;;;;25.43;52.49;97879.44;614214;230;66352;-68
2023/01/03 06:30:03;;;;;;;;;;;;;;;25.44;53.88;97881.03;613837;231;66593;-68
2023/01/03 06:32:31;;;;;;;;;;;;;;;25.45;53.57;97879.14;613770;231;63070;-68
2023/01/03 06:34:58;;;;;;;;;;;;;;;25.45;52.78;97879.97;613841;231;67010;-68
2023/01/03 06:37:26;;;;;;;;;;;;;;;25.47;54.88;97877.78;613787;230;66551;-68
2023/01/03 06:39:54;;;;;;;;;;;;;;;25.49;53.63;97884.78;613821;231;65058;-68
2023/01/03 06:42:41;;;;;;;;;;;;;;;25.50;53.01;97881.00;613789;230;68763;-68
2023/01/03 06:53:26;;;;;;;;;;;;;;;25.54;53.72;97884.76;613745;231;68568;-68
2023/01/03 06:55:54;;;;;;;;;;;;;;;25.54;53.88;97882.06;613853;231;65409;-68
2023/01/03 06:58:21;;;;;;;;;;;;;;;25.55;53.34;97880.97;613823;231;68640;-68
2023/01/03 07:00:49;;;;;;;;;;;;;;;25.55;53.19;97878.28;613670;229;68381;-73
2023/01/03 07:03:16;;;;;;;;;;;;;;;25.55;53.16;97878.28;613767;231;64916;-74
2023/01/03 07:05:44;;;;;;;;;;;;;;;25.55;50.86;97873.70;613753;231;64765;-73
2023/01/03 07:08:11;;;;;;;;;;;;;;;25.57;52.01;97876.92;613110;231;66239;-68
2023/01/03 07:10:38;;;;;;;;;;;;;;;25.58;52.30;97872.33;612749;231;64880;-68
2023/01/03 07:15:51;;;;;;;;;;;;;;;25.61;52.96;97877.95;612607;231;68405;-67
2023/01/03 07:18:19;;;;;;;;;;;;;;;25.63;53.06;97874.99;612745;231;63165;-68
2023/01/03 07:20:46;;;;;;;;;;;;;;;25.64;52.46;97876.59;612761;231;65556;-70
2023/01/03 07:23:14;;;;;;;;;;;;;;;25.64;51.03;97880.08;612704;231;66747;-67
2023/01/03 07:25:42;;;;;;;;;;;;;;;25.66;52.40;97882.50;612777;231;62673;-67
2023/01/03 07:28:11;;;;;;;;;;;;;;;25.67;52.09;97886.79;613775;231;66717;-68
2023/01/03 07:30:39;;;;;;;;;;;;;;;25.68;51.81;97889.22;613780;231;66701;-68
2023/01/03 07:33:09;;;;;;;;;;;;;;;25.70;52.33;97886.26;614031;231;65042;-68
2023/01/03 07:35:36;;;;;;;;;;;;;;;25.71;53.01;97887.86;613804;230;66733;-67
2023/01/03 07:38:05;;;;;;;;;;;;;;;25.73;52.25;97887.55;614021;231;68768;-67
2023/01/03 07:40:33;;;;;;;;;;;;;;;25.72;53.00;97881.38;614008;231;65024;-67
2023/01/03 07:45:46;;;;;;;;;;;;;;;25.76;49.30;97884.33;614051;231;69547;-67
2023/01/03 07:48:13;;;;;;;;;;;;;;;25.76;52.03;97881.64;614065;231;65058;-69
2023/01/03 07:50:41;;;;;;;;;;;;;;;25.76;51.18;97890.52;614063;231;69009;-69
2023/01/03 07:53:15;;;;;;;;;;;;;;;25.76;49.43;97881.64;614099;231;68649;-70
2023/01/03 07:55:38;;;;;;;;;;;;;;;25.77;53.08;97886.72;613907;230;64968;-70
2023/01/03 07:58:06;;;;;;;;;;;;;;;25.78;52.38;97887.52;613858;231;68662;-68
2023/01/03 08:00:33;;;;;;;;;;;;;;;25.78;51.22;97888.35;614089;231;68694;-67
2023/01/03 08:03:01;;;;;;;;;;;;;;;25.80;50.62;97886.16;614138;231;65750;-68
2023/01/03 08:05:29;;;;;;;;;;;;;;;25.79;51.76;97878.38;613148;231;68335;-69
2023/01/03 08:07:56;;;;;;;;;;;;;;;25.80;51.15;97874.59;613901;231;68314;-67
2023/01/03 08:13:19;;;;;;;;;;;;;;;25.81;52.01;97877.02;613891;231;68512;-69
2023/01/03 08:15:48;;;;;;;;;;;;;;;25.81;50.43;97879.70;614094;231;68512;-68
2023/01/03 08:18:16;;;;;;;;;;;;;;;25.82;51.00;97886.69;614090;231;62731;-71
2023/01/03 08:20:43;;;;;;;;;;;;;;;25.85;49.89;97877.28;614046;231;66330;-70
2023/01/03 08:23:11;;;;;;;;;;;;;;;25.88;46.90;97885.59;614062;231;68344;-67
2023/01/03 08:25:38;;;;;;;;;;;;;;;25.90;49.34;97882.63;614064;231;65059;-67
2023/01/03 08:28:06;;;;;;;;;;;;;;;25.91;51.48;97881.52;613526;231;68548;-67
2023/01/03 08:30:35;;;;;;;;;;;;;;;25.90;51.12;97882.63;613612;231;68228;-67
2023/01/03 08:33:03;;;;;;;;;;;;;;;25.91;52.00;97881.52;613491;231;63018;-65
2023/01/03 08:35:32;;;;;;;;;;;;;;;25.90;52.51;97878.03;613520;231;68496;-64
2023/01/03 08:38:01;;;;;;;;;;;;;;;25.91;51.41;97876.94;613409;231;68790;-66
2023/01/03 08:40:29;;;;;;;;;;;;;;;25.93;52.00;97878.56;613449;231;65266;-68
2023/01/03 08:42:56;;;;;;;;;;;;;;;25.92;51.55;97877.77;613595;231;68531;-68
2023/01/03 08:45:25;;;;;;;;;;;;;;;25.92;51.82;97872.38;613543;231;68314;-68
2023/01/03 08:47:53;;;;;;;;;;;;;;;25.93;50.09;97873.17;613465;231;64905;-66
2023/01/03 08:50:20;;;;;;;;;;;;;;;25.88;49.66;97864.04;613514;231;68518;-68
2023/01/03 08:52:48;;;;;;;;;;;;;;;25.93;50.26;97865.09;613435;231;68568;-65
2023/01/03 08:55:15;;;;;;;;;;;;;;;25.94;50.47;97866.69;613495;231;65184;-69
2023/01/03 08:57:42;;;;;;;;;;;;;;;25.94;50.77;97864.80;613499;231;68094;-70
2023/01/03 09:00:10;;;;;;;;;;;;;;;25.94;49.82;97864.00;613483;231;66213;-66
2023/01/03 09:02:38;;;;;;;;;;;;;;;25.95;50.30;97865.63;613365;231;65143;-67
2023/01/03 09:05:07;;;;;;;;;;;;;;;25.94;49.63;97854.03;613512;231;68712;-65
2023/01/03 09:07:34;;;;;;;;;;;;;;;25.95;50.83;97852.16;613517;231;68525;-68
2023/01/03 09:10:01;;;;;;;;;;;;;;;25.95;50.61;97849.47;613400;231;65054;-66
2023/01/03 09:12:29;;;;;;;;;;;;;;;25.96;51.61;97845.67;613504;231;68388;-69
2023/01/03 09:14:56;;;;;;;;;;;;;;;25.95;51.06;97839.50;613483;231;66166;-65
2023/01/03 09:17:24;;;;;;;;;;;;;;;25.95;50.31;97838.70;613402;231;63773;-65
2023/01/03 09:19:51;;;;;;;;;;;;;;;25.95;50.71;97844.08;613597;231;68486;-66
2023/01/03 09:22:19;;;;;;;;;;;;;;;25.96;51.18;97840.29;613469;231;65188;-65
2023/01/03 09:24:46;;;;;;;;;;;;;;;25.95;50.75;97834.11;613506;231;62958;-65
2023/01/03 09:27:14;;;;;;;;;;;;;;;25.96;50.69;97829.52;613462;231;66278;-65
2023/01/03 09:29:41;;;;;;;;;;;;;;;25.96;48.94;97832.21;613459;231;68510;-66
2023/01/03 09:32:09;;;;;;;;;;;;;;;25.96;50.31;97830.31;613524;231;66402;-65
2023/01/03 09:34:36;;;;;;;;;;;;;;;25.96;49.70;97834.91;613538;231;68549;-65
2023/01/03 09:37:04;;;;;;;;;;;;;;;25.94;50.53;97821.71;613464;231;68329;-65
2023/01/03 09:39:31;;;;;;;;;;;;;;;25.95;50.07;97817.16;613530;231;65115;-67
2023/01/03 09:44:46;;;;;;;;;;;;;;;25.94;50.46;97815.53;613478;229;66070;-66
2023/01/03 09:47:15;;;;;;;;;;;;;;;25.93;50.53;97803.16;613568;231;65030;-67
2023/01/03 09:49:42;;;;;;;;;;;;;;;25.93;49.71;97803.95;613431;231;66328;-66
2023/01/03 10:06:00;;;;;;;;;;;;;;;25.92;50.37;97791.59;616301;230;68364;-68
2023/01/03 10:08:45;;;;;;;;;;;;;;;25.91;48.87;97785.38;614598;230;68442;-67
2023/01/03 10:11:30;;;;;;;;;;;;;;;25.90;50.39;97789.17;616344;230;65256;-67
2023/01/03 10:14:02;;;;;;;;;;;;;;;25.89;50.17;97787.58;615918;230;66175;-67
2023/01/03 10:16:37;;;;;;;;;;;;;;;25.89;51.00;97775.98;616349;230;68435;-67
2023/01/03 10:19:15;;;;;;;;;;;;;;;25.90;50.00;97788.38;612854;230;65138;-67
2023/01/03 10:21:50;;;;;;;;;;;;;;;25.89;48.60;97779.50;615220;230;68876;-68
2023/01/03 10:24:19;;;;;;;;;;;;;;;25.89;49.74;97782.19;616270;230;66211;-68
2023/01/03 10:26:48;;;;;;;;;;;;;;;25.90;50.03;97774.91;616058;230;63009;-68
2023/01/03 10:29:17;;;;;;;;;;;;;;;25.89;49.00;97770.59;616330;230;66287;-68
2023/01/03 10:31:46;;;;;;;;;;;;;;;25.88;49.25;97759.02;616153;230;68498;-69
2023/01/03 10:34:14;;;;;;;;;;;;;;;25.88;49.86;97761.72;615315;230;64906;-68
2023/01/03 10:36:41;;;;;;;;;;;;;;;25.88;50.67;97752.84;616225;230;68577;-68
2023/01/03 10:39:10;;;;;;;;;;;;;;;25.87;50.59;97760.13;616227;230;68292;-68
2023/01/03 10:41:39;;;;;;;;;;;;;;;25.88;50.85;97752.84;616143;230;65215;-67
2023/01/03 10:44:07;;;;;;;;;;;;;;;25.88;48.61;97745.56;616146;230;68475;-67
2023/01/03 10:46:36;;;;;;;;;;;;;;;25.89;49.55;97749.05;616207;230;69206;-67
2023/01/03 10:49:14;;;;;;;;;;;;;;;25.89;49.51;97740.97;615548;230;65164;-67
2023/01/03 10:51:49;;;;;;;;;;;;;;;25.88;50.13;97737.48;615738;230;68522;-67
2023/01/03 10:54:22;;;;;;;;;;;;;;;25.88;50.69;97726.70;616212;230;68312;-67
2023/01/03 10:56:50;;;;;;;;;;;;;;;25.87;50.15;97722.42;616217;230;65057;-67
2023/01/03 10:59:27;;;;;;;;;;;;;;;25.87;50.25;97717.04;616285;230;68691;-67
2023/01/03 11:01:57;;;;;;;;;;;;;;;25.88;49.29;97724.02;616312;230;68106;-66
2023/01/03 11:04:25;;;;;;;;;;;;;;;25.88;50.40;97721.33;615399;230;65007;-66
2023/01/03 11:07:00;;;;;;;;;;;;;;;25.88;49.25;97713.25;616180;230;68206;-66
2023/01/03 11:09:35;;;;;;;;;;;;;;;25.89;49.34;97720.25;616347;230;66499;-66
2023/01/03 11:12:04;;;;;;;;;;;;;;;25.89;50.90;97714.87;616376;230;64939;-66
2023/01/03 11:14:32;;;;;;;;;;;;;;;25.89;51.55;97712.17;616316;230;68373;-66
2023/01/03 11:17:01;;;;;;;;;;;;;;;25.89;50.47;97709.48;616295;230;68166;-68
2023/01/03 11:19:30;;;;;;;;;;;;;;;25.88;47.50;97701.68;616361;230;64977;-68
2023/01/03 11:22:04;;;;;;;;;;;;;;;25.88;48.78;97698.98;616453;230;68556;-68
2023/01/03 11:24:43;;;;;;;;;;;;;;;25.88;49.44;97693.59;616363;230;68425;-68
2023/01/03 11:27:18;;;;;;;;;;;;;;;25.88;49.84;97693.59;616357;230;65053;-71
2023/01/03 11:29:51;;;;;;;;;;;;;;;25.87;49.41;97687.42;616201;230;66177;-71
2023/01/03 11:32:22;;;;;;;;;;;;;;;25.87;50.07;97684.73;615456;230;66107;-70
2023/01/03 11:34:54;;;;;;;;;;;;;;;25.86;48.94;97677.75;616261;230;65081;-70
2023/01/03 11:37:23;;;;;;;;;;;;;;;25.85;50.48;97681.51;616402;230;68682;-74
2023/01/03 11:39:55;;;;;;;;;;;;;;;25.84;50.52;97671.84;616138;230;66248;-67
2023/01/03 11:42:31;;;;;;;;;;;;;;;25.84;50.93;97671.84;616321;230;64954;-66
2023/01/03 11:45:03;;;;;;;;;;;;;;;25.84;49.68;97665.66;616403;230;68642;-68
2023/01/03 11:47:32;;;;;;;;;;;;;;;25.84;49.38;97661.06;616364;230;68483;-67
2023/01/03 11:50:18;;;;;;;;;;;;;;;25.84;50.62;97671.84;616370;230;65010;-66
2023/01/03 11:53:06;;;;;;;;;;;;;;;25.85;49.22;97665.36;616338;230;66436;-71
2023/01/03 11:55:51;;;;;;;;;;;;;;;25.86;49.51;97666.98;609120;232;66420;-68
2023/01/03 11:58:20;;;;;;;;;;;;;;;25.87;50.82;97665.88;608011;233;62884;-69
2023/01/03 12:00:54;;;;;;;;;;;;;;;25.87;50.19;97665.08;605355;231;68786;-67
2023/01/03 12:03:27;;;;;;;;;;;;;;;25.85;51.24;97657.28;613340;231;66396;-76
2023/01/03 12:05:59;;;;;;;;;;;;;;;25.85;50.68;97649.20;613994;231;65249;-69
2023/01/03 12:08:28;;;;;;;;;;;;;;;25.87;50.22;97660.49;613850;231;68488;-64
2023/01/03 12:11:03;;;;;;;;;;;;;;;25.86;50.39;97658.90;613801;230;68480;-71
2023/01/03 12:13:33;;;;;;;;;;;;;;;25.87;50.51;97655.11;614021;231;62915;-69
2023/01/03 12:16:04;;;;;;;;;;;;;;;25.85;48.56;97657.28;606893;231;68356;-70
2023/01/03 12:18:39;;;;;;;;;;;;;;;25.84;49.78;97655.69;613818;230;66353;-67
2023/01/03 12:21:08;;;;;;;;;;;;;;;25.84;50.00;97660.27;613951;231;63069;-68
2023/01/03 12:23:49;;;;;;;;;;;;;;;25.82;48.50;97655.13;613781;230;66583;-69
2023/01/03 12:26:17;;;;;;;;;;;;;;;25.83;49.08;97654.06;614101;230;68925;-66
2023/01/03 12:29:01;;;;;;;;;;;;;;;25.83;50.05;97655.92;617299;230;65032;-68
2023/01/03 12:31:48;;;;;;;;;;;;;;;25.83;49.82;97645.98;617192;230;66780;-71
2023/01/03 12:34:26;;;;;;;;;;;;;;;25.83;49.91;97645.16;617291;230;69448;-68
2023/01/03 12:37:02;;;;;;;;;;;;;;;25.83;49.62;97643.30;615916;230;65067;-68
2023/01/03 12:39:30;;;;;;;;;;;;;;;25.84;49.73;97638.73;617165;230;68853;-70
2023/01/03 12:42:00;;;;;;;;;;;;;;;25.82;48.96;97641.67;617262;230;66764;-69
2023/01/03 12:44:29;;;;;;;;;;;;;;;25.83;49.44;97647.84;617231;230;65092;-70
2023/01/03 12:46:57;;;;;;;;;;;;;;;25.83;49.91;97643.30;617415;230;68740;-70
2023/01/03 12:49:25;;;;;;;;;;;;;;;25.83;49.98;97647.84;617339;230;68770;-70
2023/01/03 12:51:53;;;;;;;;;;;;;;;25.84;49.92;97649.50;617156;230;65071;-70
2023/01/03 12:54:35;;;;;;;;;;;;;;;25.84;49.12;97638.73;617289;230;66775;-65
2023/01/03 12:57:16;;;;;;;;;;;;;;;25.85;45.57;97645.71;616900;230;66527;-72
2023/01/03 13:00:01;;;;;;;;;;;;;;;25.89;42.64;97652.11;617326;230;64888;-71
2023/01/03 13:02:36;;;;;;;;;;;;;;;25.88;46.77;97661.28;617337;230;68884;-70
2023/01/03 13:05:14;;;;;;;;;;;;;;;25.88;47.21;97655.91;615805;230;68673;-70
2023/01/03 13:07:43;;;;;;;;;;;;;;;25.87;50.97;97657.80;616369;230;63816;-70
2023/01/03 13:10:12;;;;;;;;;;;;;;;25.87;49.98;97659.70;616875;230;66404;-69
2023/01/03 13:12:41;;;;;;;;;;;;;;;25.87;47.38;97662.39;616715;230;66739;-69
2023/01/03 13:15:16;;;;;;;;;;;;;;;25.86;48.09;97666.98;616567;230;64991;-70
2023/01/03 13:17:45;;;;;;;;;;;;;;;25.88;49.29;97666.67;616933;230;67908;-70
2023/01/03 13:20:29;;;;;;;;;;;;;;;25.88;47.38;97670.16;617324;230;66550;-70
2023/01/03 13:22:58;;;;;;;;;;;;;;;25.89;48.25;97670.95;617300;229;65063;-70
2023/01/03 13:25:42;;;;;;;;;;;;;;;25.89;48.76;97670.95;615345;230;68745;-70
2023/01/03 13:28:21;;;;;;;;;;;;;;;25.88;48.27;97675.55;614985;230;66620;-71
2023/01/03 13:30:49;;;;;;;;;;;;;;;25.88;50.29;97672.85;614869;230;63139;-69
2023/01/03 13:33:18;;;;;;;;;;;;;;;25.88;48.80;97672.85;614873;230;68789;-70
2023/01/03 13:35:47;;;;;;;;;;;;;;;25.89;49.80;97669.09;614978;230;68481;-70
2023/01/03 13:38:31;;;;;;;;;;;;;;;25.89;49.79;97677.17;614986;230;65050;-72
2023/01/03 13:41:09;;;;;;;;;;;;;;;25.88;49.89;97683.63;614895;230;68935;-72
2023/01/03 13:43:37;;;;;;;;;;;;;;;25.89;49.38;97685.25;614979;230;66912;-71
2023/01/03 13:46:24;;;;;;;;;;;;;;;25.90;50.28;97686.84;614963;230;63074;-72
2023/01/03 13:48:54;;;;;;;;;;;;;;;25.91;49.16;97683.05;614965;230;68735;-71
2023/01/03 13:51:26;;;;;;;;;;;;;;;25.93;50.04;97695.44;614990;230;66472;-71
2023/01/03 13:53:56;;;;;;;;;;;;;;;25.95;49.25;97701.35;614946;230;65109;-70
2023/01/03 13:56:25;;;;;;;;;;;;;;;25.95;49.76;97698.66;614945;230;66336;-69
2023/01/03 13:59:00;;;;;;;;;;;;;;;25.96;49.58;97705.64;614896;230;68562;-72
2023/01/03 14:01:45;;;;;;;;;;;;;;;25.93;49.02;97701.63;614904;230;62378;-71
2023/01/03 14:04:24;;;;;;;;;;;;;;;25.96;49.20;97702.95;614997;230;68529;-71
2023/01/03 14:07:02;;;;;;;;;;;;;;;25.97;49.67;97702.64;614885;230;66687;-72
2023/01/03 14:09:51;;;;;;;;;;;;;;;25.98;49.33;97708.86;614803;230;65131;-72
2023/01/03 14:12:20;;;;;;;;;;;;;;;25.99;48.48;97707.75;614795;230;69274;-71